createdAt,value
2022-07-26T00:01:21.722Z,52.62
2022-07-26T00:03:55.096Z,52.69
2022-07-26T00:06:25.643Z,52.72
2022-07-26T00:08:55.505Z,52.62
2022-07-26T00:11:25.766Z,53.01
2022-07-26T00:13:55.982Z,54.21
2022-07-26T00:16:25.843Z,54.00
2022-07-26T00:18:58.654Z,54.72
2022-07-26T00:21:28.377Z,54.24
2022-07-26T00:23:58.036Z,54.24
2022-07-26T00:26:27.710Z,53.73
2022-07-26T00:28:57.402Z,54.02
2022-07-26T00:31:27.175Z,54.50
2022-07-26T00:33:59.426Z,53.67
2022-07-26T00:36:29.899Z,54.08
2022-07-26T00:38:59.533Z,54.06
2022-07-26T00:41:29.250Z,53.72
2022-07-26T00:44:01.776Z,54.05
2022-07-26T00:46:32.142Z,53.68
2022-07-26T00:49:04.724Z,53.64
2022-07-26T00:51:34.602Z,53.85
2022-07-26T00:54:04.821Z,53.91
2022-07-26T00:56:35.659Z,53.51
2022-07-26T00:59:06.009Z,54.01
2022-07-26T01:01:36.121Z,53.38
2022-07-26T01:04:09.214Z,53.57
2022-07-26T01:09:14.694Z,54.77
2022-07-26T01:11:45.786Z,54.65
2022-07-26T01:14:15.577Z,54.99
2022-07-26T01:16:45.259Z,55.11
2022-07-26T01:19:17.688Z,57.34
2022-07-26T01:21:50.262Z,63.41
2022-07-26T01:24:20.353Z,73.57
2022-07-26T01:26:50.001Z,77.75
2022-07-26T01:29:19.932Z,82.82
2022-07-26T01:31:49.651Z,84.36
2022-07-26T01:34:20.143Z,88.14
2022-07-26T01:36:54.443Z,86.60
2022-07-26T01:39:24.194Z,85.77
2022-07-26T01:41:53.845Z,83.68
2022-07-26T01:44:23.457Z,84.36
2022-07-26T01:46:53.374Z,82.88
2022-07-26T01:49:23.095Z,82.80
2022-07-26T01:51:55.361Z,85.63
2022-07-26T01:54:25.058Z,83.65
2022-07-26T01:56:54.714Z,82.73
2022-07-26T01:59:24.452Z,81.05
2022-07-26T02:01:54.222Z,83.94
2022-07-26T02:04:36.429Z,83.18
2022-07-26T02:07:13.167Z,82.25
2022-07-26T02:09:42.986Z,87.23
2022-07-26T02:12:12.910Z,85.36
2022-07-26T02:14:42.532Z,86.20
2022-07-26T02:17:12.529Z,89.12
2022-07-26T02:19:42.350Z,86.73
2022-07-26T02:22:14.677Z,87.26
2022-07-26T02:24:44.734Z,88.73
2022-07-26T02:27:14.372Z,88.08
2022-07-26T02:29:44.152Z,87.32
2022-07-26T02:32:13.969Z,88.77
2022-07-26T02:34:43.708Z,87.42
2022-07-26T02:37:16.009Z,89.95
2022-07-26T02:39:45.724Z,89.33
2022-07-26T02:42:15.422Z,89.39
2022-07-26T02:44:45.068Z,89.06
2022-07-26T02:47:14.713Z,89.01
2022-07-26T02:49:44.368Z,89.23
2022-07-26T02:52:16.580Z,89.96
2022-07-26T02:54:46.299Z,89.64
2022-07-26T02:57:16.099Z,89.01
2022-07-26T02:59:45.779Z,86.73
2022-07-26T03:02:15.533Z,85.42
2022-07-26T03:04:45.219Z,87.61
2022-07-26T03:07:17.406Z,89.86
2022-07-26T03:09:47.033Z,89.44
2022-07-26T03:12:16.663Z,94.31
2022-07-26T03:14:46.358Z,91.43
2022-07-26T03:17:16.091Z,90.38
2022-07-26T03:19:45.803Z,88.89
2022-07-26T03:22:18.077Z,92.44
2022-07-26T03:24:47.716Z,91.37
2022-07-26T03:27:17.416Z,88.74
2022-07-26T03:29:47.066Z,86.35
2022-07-26T03:32:16.716Z,86.42
2022-07-26T03:34:46.382Z,87.35
2022-07-26T03:37:18.824Z,87.73
2022-07-26T03:39:48.527Z,88.72
2022-07-26T03:42:18.352Z,90.64
2022-07-26T03:44:48.024Z,89.13
2022-07-26T03:47:17.683Z,88.28
2022-07-26T03:49:47.401Z,88.87
2022-07-26T03:52:19.672Z,90.88
2022-07-26T03:54:49.376Z,90.62
2022-07-26T03:57:16.523Z,94.69
2022-07-26T03:59:46.192Z,90.65
2022-07-26T04:02:15.968Z,90.72
2022-07-26T04:04:45.661Z,89.52
2022-07-26T04:07:16.139Z,92.15
2022-07-26T04:09:48.604Z,90.60
2022-07-26T04:12:18.239Z,89.88
2022-07-26T04:14:47.860Z,90.76
2022-07-26T04:17:17.557Z,91.59
2022-07-26T04:19:47.322Z,91.37
2022-07-26T04:22:17.035Z,91.40
2022-07-26T04:24:49.364Z,88.62
2022-07-26T04:27:19.012Z,91.06
2022-07-26T04:29:48.668Z,92.34
2022-07-26T04:32:18.386Z,91.68
2022-07-26T04:34:48.212Z,90.12
2022-07-26T04:37:18.091Z,92.37
2022-07-26T04:39:54.939Z,91.90
2022-07-26T04:42:24.862Z,92.79
2022-07-26T04:44:54.578Z,90.49
2022-07-26T04:47:24.267Z,92.03
2022-07-26T04:49:54.031Z,91.58
2022-07-26T04:52:23.709Z,91.06
2022-07-26T04:54:56.164Z,91.83
2022-07-26T04:57:25.897Z,93.39
2022-07-26T05:00:16.767Z,93.15
2022-07-26T05:02:45.562Z,92.10
2022-07-26T05:05:15.342Z,91.44
2022-07-26T05:07:45.940Z,92.56
2022-07-26T05:10:20.271Z,94.43
2022-07-26T05:12:50.272Z,92.59
2022-07-26T05:15:20.006Z,91.57
2022-07-26T05:17:49.787Z,91.12
2022-07-26T05:20:20.239Z,90.08
2022-07-26T05:22:49.908Z,89.82
2022-07-26T05:25:22.195Z,89.33
2022-07-26T05:27:51.900Z,77.59
2022-07-26T05:30:21.682Z,67.46
2022-07-26T05:32:51.386Z,65.26
2022-07-26T05:35:21.089Z,65.90
2022-07-26T05:37:50.802Z,64.49
2022-07-26T05:40:23.241Z,62.30
2022-07-26T05:42:52.936Z,57.46
2022-07-26T05:45:22.742Z,52.84
2022-07-26T05:47:53.149Z,53.61
2022-07-26T05:50:22.919Z,53.24
2022-07-26T05:52:52.559Z,53.20
2022-07-26T05:55:26.676Z,59.29
2022-07-26T05:57:56.328Z,63.36
2022-07-26T06:00:25.997Z,66.97
2022-07-26T06:02:55.812Z,69.82
2022-07-26T06:05:25.575Z,71.59
2022-07-26T06:07:55.275Z,68.75
2022-07-26T06:10:27.739Z,66.13
2022-07-26T06:12:57.502Z,65.52
2022-07-26T06:15:27.246Z,65.16
2022-07-26T06:17:56.966Z,66.95
2022-07-26T06:20:26.778Z,66.96
2022-07-26T06:22:58.695Z,68.53
2022-07-26T06:25:31.026Z,69.22
2022-07-26T06:28:00.762Z,70.83
2022-07-26T06:30:30.631Z,72.20
2022-07-26T06:33:00.860Z,71.61
2022-07-26T06:35:32.126Z,71.45
2022-07-26T06:38:02.899Z,70.76
2022-07-26T06:40:36.198Z,70.07
2022-07-26T06:43:07.221Z,70.21
2022-07-26T06:45:37.029Z,66.46
2022-07-26T06:48:07.346Z,67.26
2022-07-26T06:50:37.071Z,66.66
2022-07-26T06:53:06.823Z,66.06
2022-07-26T06:55:39.224Z,64.67
2022-07-26T06:58:08.919Z,63.11
2022-07-26T07:00:38.809Z,62.93
2022-07-26T07:03:08.617Z,61.34
2022-07-26T07:05:38.319Z,60.50
2022-07-26T07:08:09.295Z,59.12
2022-07-26T07:10:42.757Z,59.01
2022-07-26T07:13:12.957Z,59.15
2022-07-26T07:15:42.859Z,58.52
2022-07-26T07:18:12.607Z,57.91
2022-07-26T07:20:42.772Z,58.90
2022-07-26T07:23:12.561Z,57.00
2022-07-26T07:25:45.103Z,56.35
2022-07-26T07:28:14.816Z,55.75
2022-07-26T07:30:45.156Z,54.96
2022-07-26T07:33:22.580Z,54.60
2022-07-26T07:35:53.951Z,53.55
2022-07-26T07:38:23.921Z,54.01
2022-07-26T07:40:57.313Z,53.66
2022-07-26T07:43:27.020Z,53.08
2022-07-26T07:45:56.828Z,51.74
2022-07-26T07:48:26.696Z,50.07
2022-07-26T07:50:56.709Z,49.49
2022-07-26T07:53:26.420Z,49.93
2022-07-26T07:55:58.737Z,51.51
2022-07-26T07:58:28.581Z,49.33
2022-07-26T08:00:58.757Z,48.81
2022-07-26T08:03:38.783Z,48.70
2022-07-26T08:06:11.505Z,46.51
2022-07-26T08:08:41.366Z,48.23
2022-07-26T08:11:15.258Z,47.66
2022-07-26T08:13:47.920Z,48.50
2022-07-26T08:16:18.093Z,45.43
2022-07-26T08:18:57.334Z,44.80
2022-07-26T08:21:29.132Z,46.04
2022-07-26T08:23:59.585Z,46.19
2022-07-26T08:26:31.913Z,46.86
2022-07-26T08:29:01.608Z,45.20
2022-07-26T08:31:31.694Z,45.08
2022-07-26T08:34:01.650Z,44.03
2022-07-26T08:36:32.925Z,44.84
2022-07-26T08:39:03.156Z,43.65
2022-07-26T08:41:35.475Z,44.45
2022-07-26T08:44:08.905Z,44.78
2022-07-26T08:46:40.383Z,44.51
2022-07-26T08:49:11.851Z,44.87
2022-07-26T08:51:44.093Z,44.02
2022-07-26T08:54:15.491Z,44.17
2022-07-26T08:56:55.963Z,43.56
2022-07-26T08:59:25.728Z,44.63
2022-07-26T09:01:57.926Z,44.10
2022-07-26T09:04:33.902Z,44.27
2022-07-26T09:07:07.371Z,43.37
2022-07-26T09:09:40.017Z,43.47
2022-07-26T09:12:22.984Z,43.21
2022-07-26T09:14:53.363Z,42.66
2022-07-26T09:17:24.613Z,43.41
2022-07-26T09:20:09.712Z,43.99
2022-07-26T09:22:40.691Z,43.40
2022-07-26T09:25:23.598Z,42.67
2022-07-26T09:27:56.473Z,42.92
2022-07-26T09:30:26.432Z,42.54
2022-07-26T09:33:04.998Z,42.31
2022-07-26T09:35:51.190Z,42.34
2022-07-26T09:38:21.634Z,42.45
2022-07-26T09:40:51.893Z,42.39
2022-07-26T09:43:24.951Z,42.45
2022-07-26T09:46:11.110Z,42.46
2022-07-26T09:49:08.287Z,42.76
2022-07-26T09:51:42.370Z,43.22
2022-07-26T09:54:14.817Z,42.34
2022-07-26T09:56:47.460Z,41.81
2022-07-26T09:59:21.746Z,41.45
2022-07-26T10:01:53.846Z,42.22
2022-07-26T10:04:24.546Z,41.45
2022-07-26T10:06:54.665Z,42.27
2022-07-26T10:09:25.572Z,41.96
2022-07-26T10:11:59.428Z,41.52
2022-07-26T10:14:46.290Z,41.56
2022-07-26T10:17:49.527Z,41.85
2022-07-26T10:20:41.564Z,42.47
2022-07-26T10:23:40.126Z,41.55
2022-07-26T10:26:14.971Z,41.64
2022-07-26T10:28:45.722Z,41.89
2022-07-26T10:31:33.584Z,41.59
2022-07-26T10:34:04.586Z,41.62
2022-07-26T10:36:37.967Z,42.15
2022-07-26T10:39:11.176Z,41.92
2022-07-26T10:41:43.764Z,42.32
2022-07-26T10:44:25.441Z,42.12
2022-07-26T10:47:15.980Z,41.94
2022-07-26T10:49:56.355Z,40.75
2022-07-26T10:52:28.988Z,39.93
2022-07-26T10:55:20.038Z,40.87
2022-07-26T10:57:51.592Z,41.68
2022-07-26T11:00:26.394Z,41.45
2022-07-26T11:03:00.944Z,40.56
2022-07-26T11:05:35.370Z,39.58
2022-07-26T11:08:11.171Z,39.66
2022-07-26T11:10:42.698Z,39.70
2022-07-26T11:13:15.743Z,40.12
2022-07-26T11:15:48.356Z,39.29
2022-07-26T11:18:30.857Z,39.54
2022-07-26T11:21:11.463Z,38.57
2022-07-26T11:23:44.255Z,38.07
2022-07-26T11:26:19.631Z,39.26
2022-07-26T11:28:58.115Z,40.89
2022-07-26T11:31:51.553Z,40.43
2022-07-26T11:34:33.347Z,38.62
2022-07-26T11:37:05.501Z,39.28
2022-07-26T11:39:37.931Z,38.53
2022-07-26T11:42:10.060Z,39.20
2022-07-26T11:44:40.346Z,38.58
2022-07-26T11:47:14.731Z,38.27
2022-07-26T11:50:00.770Z,38.45
2022-07-26T11:52:36.777Z,38.46
2022-07-26T11:55:07.207Z,38.40
2022-07-26T11:57:36.928Z,38.31
2022-07-26T12:00:08.419Z,37.57
2022-07-26T12:02:38.221Z,36.74
2022-07-26T12:05:21.312Z,38.24
2022-07-26T12:08:03.076Z,37.16
2022-07-26T12:10:33.257Z,36.48
2022-07-26T12:13:11.104Z,37.54
2022-07-26T12:15:48.936Z,36.67
2022-07-26T12:18:26.541Z,37.64
2022-07-26T12:21:06.314Z,36.72
2022-07-26T12:23:48.557Z,35.83
2022-07-26T12:26:27.651Z,34.71
2022-07-26T12:28:58.273Z,36.89
2022-07-26T12:31:29.721Z,35.95
2022-07-26T12:34:00.758Z,36.28
2022-07-26T12:36:36.657Z,36.29
2022-07-26T12:39:07.670Z,35.64
2022-07-26T12:41:39.634Z,35.46
2022-07-26T12:44:12.732Z,35.17
2022-07-26T12:46:47.489Z,34.98
2022-07-26T12:49:17.877Z,34.89
2022-07-26T12:51:50.191Z,35.11
2022-07-26T12:54:19.899Z,33.92
2022-07-26T12:56:49.529Z,34.72
2022-07-26T12:59:19.790Z,34.51
2022-07-26T13:01:49.600Z,35.24
2022-07-26T13:04:19.356Z,34.55
2022-07-26T13:06:51.642Z,35.16
2022-07-26T13:09:21.368Z,34.88
2022-07-26T13:11:51.132Z,34.81
2022-07-26T13:14:21.071Z,33.94
2022-07-26T13:16:50.872Z,34.77
2022-07-26T13:19:20.660Z,34.94
2022-07-26T13:21:53.260Z,33.72
2022-07-26T13:24:22.979Z,33.35
2022-07-26T13:26:53.337Z,33.52
2022-07-26T13:29:23.242Z,34.52
2022-07-26T13:31:53.978Z,33.66
2022-07-26T13:34:23.762Z,33.34
2022-07-26T13:36:56.336Z,33.48
2022-07-26T13:39:26.278Z,33.25
2022-07-26T13:42:01.546Z,33.03
2022-07-26T13:44:31.210Z,33.13
2022-07-26T13:47:02.287Z,33.69
2022-07-26T13:49:32.713Z,32.83
2022-07-26T13:52:05.133Z,33.94
2022-07-26T13:54:36.505Z,33.68
2022-07-26T13:57:08.111Z,33.24
2022-07-26T13:59:37.781Z,34.06
2022-07-26T14:02:07.591Z,34.22
2022-07-26T14:04:37.390Z,34.47
2022-07-26T14:07:09.681Z,33.36
2022-07-26T14:09:39.388Z,33.84
2022-07-26T14:12:09.449Z,34.20
2022-07-26T14:14:39.113Z,34.11
2022-07-26T14:17:08.799Z,34.17
2022-07-26T14:19:38.999Z,34.94
2022-07-26T14:22:11.423Z,35.20
2022-07-26T14:24:41.104Z,34.13
2022-07-26T14:27:10.959Z,34.64
2022-07-26T14:29:40.936Z,33.81
2022-07-26T14:32:10.721Z,33.94
2022-07-26T14:34:40.536Z,33.85
2022-07-26T14:37:41.014Z,33.92
2022-07-26T14:40:02.490Z,33.24
2022-07-26T14:42:32.606Z,32.79
2022-07-26T14:45:02.335Z,33.68
2022-07-26T14:47:31.954Z,34.11
2022-07-26T14:50:06.430Z,35.06
2022-07-26T14:52:40.026Z,35.02
2022-07-26T14:55:10.505Z,34.90
2022-07-26T14:57:40.705Z,35.10
2022-07-26T15:00:13.562Z,35.67
2022-07-26T15:02:44.655Z,36.47
2022-07-26T15:05:16.119Z,36.09
2022-07-26T15:07:49.147Z,35.94
2022-07-26T15:10:29.373Z,35.61
2022-07-26T15:12:59.282Z,35.54
2022-07-26T15:15:29.942Z,35.89
2022-07-26T15:18:00.107Z,36.17
2022-07-26T15:20:30.265Z,35.46
2022-07-26T15:23:03.613Z,35.10
2022-07-26T15:25:33.248Z,35.73
2022-07-26T15:28:02.886Z,36.05
2022-07-26T15:30:32.508Z,35.68
2022-07-26T15:33:02.591Z,34.96
2022-07-26T15:35:32.874Z,35.24
2022-07-26T15:38:05.328Z,35.44
2022-07-26T15:40:35.333Z,34.99
2022-07-26T15:43:05.000Z,35.20
2022-07-26T15:45:37.594Z,35.43
2022-07-26T15:48:14.943Z,35.18
2022-07-26T15:50:48.200Z,35.14
2022-07-26T15:53:20.497Z,35.22
2022-07-26T15:55:50.183Z,36.15
2022-07-26T15:58:21.237Z,35.86
2022-07-26T16:00:51.131Z,35.63
2022-07-26T16:03:21.021Z,35.76
2022-07-26T16:05:50.964Z,35.49
2022-07-26T16:08:23.272Z,35.34
2022-07-26T16:10:53.127Z,35.56
2022-07-26T16:13:22.886Z,36.49
2022-07-26T16:15:52.700Z,36.19
2022-07-26T16:18:22.388Z,36.55
2022-07-26T16:20:52.141Z,37.62
2022-07-26T16:23:24.476Z,37.01
2022-07-26T16:25:54.236Z,38.02
2022-07-26T16:28:23.932Z,37.90
2022-07-26T16:30:53.889Z,37.43
2022-07-26T16:33:23.915Z,37.75
2022-07-26T16:35:53.494Z,36.96
2022-07-26T16:38:25.798Z,36.57
2022-07-26T16:40:55.474Z,36.77
2022-07-26T16:43:25.119Z,36.68
2022-07-26T16:45:54.871Z,36.73
2022-07-26T16:48:24.512Z,37.35
2022-07-26T16:50:54.178Z,37.71
2022-07-26T16:53:26.450Z,37.65
2022-07-26T16:55:56.221Z,38.22
2022-07-26T16:58:25.867Z,38.19
2022-07-26T17:00:55.652Z,38.29
2022-07-26T17:03:25.644Z,38.63
2022-07-26T17:05:55.363Z,38.45
2022-07-26T17:08:27.656Z,39.02
2022-07-26T17:10:58.129Z,38.53
2022-07-26T17:13:28.423Z,39.27
2022-07-26T17:15:58.163Z,38.87
2022-07-26T17:18:28.383Z,39.43
2022-07-26T17:20:58.284Z,39.08
2022-07-26T17:23:30.596Z,39.06
2022-07-26T17:26:00.265Z,38.99
2022-07-26T17:28:29.938Z,38.81
2022-07-26T17:30:59.657Z,39.03
2022-07-26T17:33:29.555Z,39.24
2022-07-26T17:36:03.414Z,39.19
2022-07-26T17:38:41.115Z,38.97
2022-07-26T17:41:17.564Z,39.45
2022-07-26T17:43:48.675Z,39.75
2022-07-26T17:46:18.683Z,39.38
2022-07-26T17:48:48.515Z,38.46
2022-07-26T17:51:19.292Z,39.07
2022-07-26T17:53:53.402Z,38.39
2022-07-26T17:56:23.136Z,38.54
2022-07-26T17:58:52.978Z,39.17
2022-07-26T18:01:22.769Z,39.33
2022-07-26T18:03:52.672Z,39.74
2022-07-26T18:06:22.368Z,39.58
2022-07-26T18:08:54.542Z,40.71
2022-07-26T18:11:24.185Z,40.45
2022-07-26T18:13:53.851Z,40.55
2022-07-26T18:16:23.531Z,40.37
2022-07-26T18:18:53.515Z,40.64
2022-07-26T18:21:23.249Z,40.92
2022-07-26T18:24:15.882Z,40.22
2022-07-26T18:26:45.940Z,39.65
2022-07-26T18:29:16.683Z,39.71
2022-07-26T18:31:46.399Z,39.85
2022-07-26T18:34:16.175Z,40.33
2022-07-26T18:36:46.189Z,40.42
2022-07-26T18:39:18.624Z,40.58
2022-07-26T18:41:48.536Z,40.91
2022-07-26T18:44:18.254Z,40.85
2022-07-26T18:46:47.933Z,40.19
2022-07-26T18:49:20.228Z,40.65
2022-07-26T18:51:50.623Z,40.59
2022-07-26T18:54:25.147Z,40.64
2022-07-26T18:56:55.221Z,40.79
2022-07-26T18:59:24.967Z,41.94
2022-07-26T19:01:54.780Z,42.36
2022-07-26T19:04:24.521Z,41.98
2022-07-26T19:06:54.420Z,41.97
2022-07-26T19:09:26.759Z,42.35
2022-07-26T19:11:56.473Z,42.40
2022-07-26T19:14:26.245Z,42.69
2022-07-26T19:16:55.940Z,43.23
2022-07-26T19:19:25.687Z,43.39
2022-07-26T19:21:55.437Z,43.58
2022-07-26T19:24:27.788Z,43.65
2022-07-26T19:26:57.594Z,44.08
2022-07-26T19:29:27.951Z,44.34
2022-07-26T19:31:57.767Z,44.21
2022-07-26T19:34:27.554Z,44.82
2022-07-26T19:36:57.340Z,44.96
2022-07-26T19:39:30.038Z,44.58
2022-07-26T19:41:59.974Z,45.26
2022-07-26T19:44:29.729Z,44.98
2022-07-26T19:46:59.564Z,45.29
2022-07-26T19:49:29.345Z,45.45
2022-07-26T19:51:59.953Z,45.87
2022-07-26T19:54:32.508Z,45.54
2022-07-26T19:57:02.368Z,46.07
2022-07-26T19:59:32.071Z,46.00
2022-07-26T20:02:01.987Z,46.36
2022-07-26T20:04:32.111Z,45.77
2022-07-26T20:07:01.855Z,45.80
2022-07-26T20:09:34.273Z,46.67
2022-07-26T20:12:04.197Z,45.85
2022-07-26T20:14:34.049Z,46.60
2022-07-26T20:17:03.808Z,46.27
2022-07-26T20:19:42.610Z,46.82
2022-07-26T20:22:12.923Z,46.73
2022-07-26T20:24:45.232Z,46.91
2022-07-26T20:27:15.507Z,47.10
2022-07-26T20:29:45.282Z,47.71
2022-07-26T20:32:15.003Z,47.80
2022-07-26T20:34:44.841Z,48.37
2022-07-26T20:37:14.519Z,48.84
2022-07-26T20:39:47.178Z,49.01
2022-07-26T20:42:21.471Z,48.78
2022-07-26T20:44:52.896Z,48.77
2022-07-26T20:47:23.038Z,48.60
2022-07-26T20:49:52.679Z,47.89
2022-07-26T20:52:22.459Z,49.64
2022-07-26T20:54:58.083Z,48.92
2022-07-26T20:57:27.825Z,48.77
2022-07-26T20:59:57.560Z,49.36
2022-07-26T21:02:27.317Z,49.33
2022-07-26T21:04:58.876Z,49.33
2022-07-26T21:07:53.530Z,49.92
2022-07-26T21:10:22.376Z,50.78
2022-07-26T21:12:53.151Z,51.53
2022-07-26T21:15:23.075Z,52.12
2022-07-26T21:17:53.260Z,51.18
2022-07-26T21:20:23.345Z,51.83
2022-07-26T21:22:53.052Z,52.50
2022-07-26T21:25:25.467Z,52.69
2022-07-26T21:27:55.234Z,52.97
2022-07-26T21:30:24.894Z,54.17
2022-07-26T21:32:54.710Z,55.57
2022-07-26T21:35:24.448Z,55.19
2022-07-26T21:37:54.657Z,54.40
2022-07-26T21:40:27.210Z,53.91
2022-07-26T21:42:56.942Z,55.63
2022-07-26T21:45:26.628Z,56.05
2022-07-26T21:47:56.841Z,54.77
2022-07-26T21:50:26.665Z,54.89
2022-07-26T21:52:56.493Z,55.63
2022-07-26T21:55:28.928Z,56.47
2022-07-26T21:57:58.817Z,56.59
2022-07-26T22:00:28.650Z,57.63
2022-07-26T22:02:58.352Z,56.87
2022-07-26T22:05:40.538Z,56.76
2022-07-26T22:08:12.301Z,56.91
2022-07-26T22:10:47.024Z,57.11
2022-07-26T22:13:17.141Z,57.43
2022-07-26T22:15:47.076Z,58.02
2022-07-26T22:18:16.927Z,58.17
2022-07-26T22:20:47.694Z,57.94
2022-07-26T22:23:17.890Z,58.73
2022-07-26T22:25:50.328Z,57.55
2022-07-26T22:28:20.061Z,58.68
2022-07-26T22:30:49.821Z,59.24
2022-07-26T22:33:19.883Z,59.23
2022-07-26T22:35:51.412Z,60.26
2022-07-26T22:38:21.216Z,59.98
2022-07-26T22:40:53.740Z,59.32
2022-07-26T22:43:23.502Z,59.48
2022-07-26T22:45:53.344Z,60.09
2022-07-26T22:48:23.226Z,61.00
2022-07-26T22:50:53.081Z,60.46
2022-07-26T22:53:22.845Z,62.07
2022-07-26T22:55:55.238Z,61.79
2022-07-26T22:58:25.045Z,62.46
2022-07-26T23:00:54.878Z,62.34
2022-07-26T23:03:24.655Z,61.35
2022-07-26T23:05:54.711Z,61.88
2022-07-26T23:11:16.785Z,61.90
2022-07-26T23:13:46.513Z,62.98
2022-07-26T23:16:16.359Z,61.28
2022-07-26T23:18:46.155Z,61.13
2022-07-26T23:21:15.986Z,60.84
2022-07-26T23:23:45.741Z,59.68
2022-07-26T23:26:18.832Z,58.97
2022-07-26T23:28:48.552Z,59.65
2022-07-26T23:31:18.428Z,58.79
2022-07-26T23:33:50.546Z,60.07
2022-07-26T23:36:27.139Z,61.40
2022-07-26T23:38:57.186Z,62.13
2022-07-26T23:41:30.799Z,62.46
2022-07-26T23:44:00.554Z,62.06
2022-07-26T23:46:30.631Z,60.97
2022-07-26T23:49:01.262Z,60.58
2022-07-26T23:51:31.037Z,60.85
2022-07-26T23:54:00.803Z,61.19
2022-07-26T23:56:33.121Z,61.51
2022-07-26T23:59:02.875Z,60.22
